Extreme weather reports worldwide

Thunderstorm

Station
 
Location
 
Name
 
Wind
Knots
Gust
Knots
Vis
SM
Temp/Dew
C
Baro
inHg
METAR
 
CTC SANC Catamarca, AR Catamarca Airport 18 6.21 34/16 29.65 SANC 032239Z 02018KT 9999 TS SCT050TCB FEW060CB 34/16 Q1004
MWZ HTMW Mwanza, TZ Mwanza Airport 10 6.21 20/17 30.03 HTMW 032200Z 03010KT 9999 TS FEW019 FEW020CB 20/17 Q1017 NOSIG
GYN SBGO Goiânia, BR Santa Genoveva Airport 10 6.21 25/20 29.88 SBGO 032300Z 02010KT 340V110 9999 -TSRA FEW020 BKN030 FEW050CB 25/20 Q1012
UDI SBUL Uberlândia, BR Ten. Cel. Aviador César Bombonato Airport 9 1.55 19/17 29.91 SBUL 032200Z 04009KT 2500 TSRA SCT029 FEW049CB SCT080 19/17 Q1013
MOC SBMK Montes Claros, BR Mário Ribeiro Airport 8 6.21 24/17 29.91 SBMK 032200Z 07008KT 9999 VCTS FEW050CB BKN060 24/17 Q1013

Station
 
Location
 
Name
 
Wind
Knots
Gust
Knots
Vis
SM
Temp/Dew
C
Baro
inHg
METAR
 
SBAN Anápolis, BR Base Aérea Airport 8 4.97 20/20 29.94 SBAN 032200Z 03008KT 8000 3000NE -TSRA FEW012 BKN025 FEW030CB BKN070 20/20 Q1014 RERA
ADB LTBJ İzmir, TR Adnan Menderes International Airport 8 4.35 13/12 29.94 LTBJ 032250Z 16008KT 150V210 7000 -TSRA FEW016CB SCT016 BKN080 13/12 Q1014 RESHRA BECMG TL2350 NSW
JNB FAOR Johannesburg, ZA OR Tambo International Airport 5 6.21 16/16 30.21 FAOR 032200Z 16005KT 9999 VCTS FEW030CB BKN035 16/16 Q1023 RETSRA NOSIG
0 SBLS Lagoa Santa, BR Lagoa Santa Airport 4 6.21 18/18 29.94 SBLS 032200Z 14004KT 080V160 9999 VCTS FEW008 FEW040CB BKN066 18/18 Q1014
TFF SBTF Tefé, BR Tefé Airport 3 6.21 26/25 29.76 SBTF 032245Z 11003KT 9999 TS FEW010 FEW025CB OVC090 26/25 Q1008
KOE WATT Kupang-Timor Island, ID El Tari Airport 2 3.11 26/25 29.82 WATT 032230Z 10002KT 5000 -TSRA FEW015CB SCT015 26/25 Q1010 TEMPO TL0730 3000 TSRA RMK CB IN ALL AREA
TGG WMKN Kuala Terengganu, MY Sultan Mahmud Airport 1 3.73 24/24 29.88 WMKN 032200Z VRB01KT 6000 TSRA FEW006 FEW017CB SCT020 24/24 Q1012
TJA SLTJ Tarija, BO Capitan Oriel Lea Plaza Airport 0 6.21 19/16 30.03 SLTJ 032244Z 00000KT 9999 TS SCT033 FEW036CB BKN200 19/16 Q1017